createdAt,value
2023-03-17T00:03:57.467Z,0.93
2023-03-17T00:07:57.549Z,0.90
2023-03-17T00:11:58.387Z,0.91
2023-03-17T00:15:57.855Z,0.90
2023-03-17T00:19:58.016Z,0.91
2023-03-17T00:23:58.104Z,0.90
2023-03-17T00:27:58.296Z,0.86
2023-03-17T00:31:58.445Z,0.87
2023-03-17T00:35:58.609Z,0.89
2023-03-17T00:39:58.725Z,0.92
2023-03-17T00:43:58.824Z,0.93
2023-03-17T00:47:59.028Z,0.93
2023-03-17T00:51:59.167Z,0.95
2023-03-17T00:55:59.337Z,0.94
2023-03-17T00:59:59.523Z,0.95
2023-03-17T01:03:59.686Z,0.93
2023-03-17T01:07:59.838Z,0.91
2023-03-17T01:12:00.035Z,0.92
2023-03-17T01:16:00.305Z,0.90
2023-03-17T01:20:00.338Z,0.86
2023-03-17T01:24:00.546Z,0.89
2023-03-17T01:28:00.645Z,0.86
2023-03-17T01:32:00.855Z,0.87
2023-03-17T01:36:00.991Z,0.89
2023-03-17T01:40:01.122Z,0.87
2023-03-17T01:44:01.292Z,0.85
2023-03-17T01:48:01.441Z,0.87
2023-03-17T01:52:01.583Z,0.85
2023-03-17T01:56:01.735Z,0.85
2023-03-17T02:00:01.883Z,0.85
2023-03-17T02:04:02.064Z,0.85
2023-03-17T02:08:02.208Z,0.85
2023-03-17T02:12:02.342Z,0.86
2023-03-17T02:16:02.524Z,0.84
2023-03-17T02:20:02.646Z,0.85
2023-03-17T02:24:02.838Z,0.84
2023-03-17T02:28:02.977Z,0.86
2023-03-17T02:32:03.169Z,0.81
2023-03-17T02:36:03.375Z,0.86
2023-03-17T02:40:03.548Z,0.85
2023-03-17T02:44:03.615Z,0.85
2023-03-17T02:48:03.796Z,0.85
2023-03-17T02:52:03.964Z,0.84
2023-03-17T02:56:04.150Z,0.83
2023-03-17T03:00:04.258Z,0.83
2023-03-17T03:04:04.472Z,0.82
2023-03-17T03:08:04.610Z,0.82
2023-03-17T03:12:04.757Z,0.82
2023-03-17T03:16:05.031Z,0.78
2023-03-17T03:20:05.138Z,0.81
2023-03-17T03:24:05.320Z,0.78
2023-03-17T03:28:05.559Z,0.77
2023-03-17T03:32:05.715Z,0.78
2023-03-17T03:36:05.957Z,0.80
2023-03-17T03:40:06.116Z,0.75
2023-03-17T03:44:06.306Z,0.79
2023-03-17T03:48:06.500Z,0.75
2023-03-17T03:52:06.700Z,0.73
2023-03-17T03:56:06.993Z,0.77
2023-03-17T04:00:07.131Z,0.76
2023-03-17T04:04:07.352Z,0.76
2023-03-17T04:08:07.515Z,0.75
2023-03-17T04:12:07.754Z,0.75
2023-03-17T04:16:08.023Z,0.76
2023-03-17T04:20:08.144Z,0.75
2023-03-17T04:24:08.328Z,0.73
2023-03-17T04:28:08.507Z,0.73
2023-03-17T04:32:08.735Z,0.73
2023-03-17T04:36:08.983Z,0.72
2023-03-17T04:40:09.156Z,0.72
2023-03-17T04:44:09.369Z,0.73
2023-03-17T04:48:09.586Z,0.72
2023-03-17T04:52:09.785Z,0.71
2023-03-17T04:56:09.764Z,0.71
2023-03-17T05:00:09.756Z,0.71
2023-03-17T05:04:11.145Z,0.71
2023-03-17T05:08:09.655Z,0.69
2023-03-17T05:12:09.670Z,0.71
2023-03-17T05:16:09.720Z,0.69
2023-03-17T05:20:09.549Z,0.69
2023-03-17T05:24:09.523Z,0.69
2023-03-17T05:28:09.477Z,0.71
2023-03-17T05:32:09.426Z,0.70
2023-03-17T05:36:09.453Z,0.70
2023-03-17T05:40:09.355Z,0.69
2023-03-17T05:44:09.286Z,0.69
2023-03-17T05:48:09.462Z,0.69
2023-03-17T05:52:09.703Z,0.67
2023-03-17T05:56:09.870Z,0.70
2023-03-17T06:00:12.433Z,0.75
2023-03-17T06:04:10.079Z,0.81
2023-03-17T06:08:10.031Z,0.86
2023-03-17T06:12:10.034Z,0.90
2023-03-17T06:16:09.989Z,0.96
2023-03-17T06:20:09.954Z,1.05
2023-03-17T06:24:09.929Z,1.10
2023-03-17T06:28:09.858Z,1.15
2023-03-17T06:32:20.269Z,1.23
2023-03-17T06:36:10.823Z,1.27
2023-03-17T06:40:10.018Z,1.35
2023-03-17T06:44:10.012Z,1.44
2023-03-17T06:48:10.033Z,1.46
2023-03-17T06:52:10.017Z,1.52
2023-03-17T06:56:23.536Z,1.55
2023-03-17T07:00:11.536Z,1.58
2023-03-17T07:04:10.099Z,1.68
2023-03-17T07:08:10.080Z,1.71
2023-03-17T07:12:09.949Z,1.75
2023-03-17T07:16:10.127Z,1.84
2023-03-17T07:20:10.316Z,1.88
2023-03-17T07:24:10.309Z,1.94
2023-03-17T07:28:10.563Z,1.96
2023-03-17T07:32:10.505Z,2.01
2023-03-17T07:36:10.691Z,2.08
2023-03-17T07:40:11.568Z,2.11
2023-03-17T07:44:11.047Z,2.13
2023-03-17T07:48:10.944Z,2.17
2023-03-17T07:52:11.146Z,2.19
2023-03-17T07:56:11.114Z,2.19
2023-03-17T08:00:11.134Z,2.19
2023-03-17T08:04:11.194Z,2.21
2023-03-17T08:08:11.221Z,2.18
2023-03-17T08:12:11.275Z,2.13
2023-03-17T08:16:11.557Z,2.15
2023-03-17T08:20:11.372Z,2.16
2023-03-17T08:24:11.375Z,2.15
2023-03-17T08:28:11.417Z,2.14
2023-03-17T08:32:11.454Z,2.17
2023-03-17T08:36:11.438Z,2.14
2023-03-17T08:40:11.402Z,2.14
2023-03-17T08:44:11.554Z,2.11
2023-03-17T08:48:11.573Z,2.11
2023-03-17T08:52:11.574Z,2.12
2023-03-17T08:56:11.563Z,2.05
2023-03-17T09:00:11.274Z,2.07
2023-03-17T09:04:11.281Z,2.05
2023-03-17T09:08:11.650Z,1.98
2023-03-17T09:12:11.279Z,1.91
2023-03-17T09:16:11.409Z,1.85
2023-03-17T09:20:11.188Z,1.86
2023-03-17T09:24:11.189Z,1.87
2023-03-17T09:28:11.586Z,1.76
2023-03-17T09:32:11.154Z,1.76
2023-03-17T09:36:11.246Z,1.78
2023-03-17T09:40:11.581Z,1.81
2023-03-17T09:44:11.591Z,1.76
2023-03-17T09:48:11.583Z,1.75
2023-03-17T09:52:11.240Z,1.69
2023-03-17T09:56:11.603Z,1.68
2023-03-17T10:00:11.346Z,1.66
2023-03-17T10:04:11.566Z,1.67
2023-03-17T10:08:28.870Z,1.74
2023-03-17T10:12:12.464Z,1.74
2023-03-17T10:16:11.446Z,1.63
2023-03-17T10:20:11.385Z,1.63
2023-03-17T10:24:11.598Z,1.66
2023-03-17T10:28:11.554Z,1.82
2023-03-17T10:32:11.749Z,1.78
2023-03-17T10:36:12.146Z,1.76
2023-03-17T10:40:12.091Z,1.79
2023-03-17T10:44:11.816Z,1.75
2023-03-17T10:48:12.100Z,1.84
2023-03-17T10:52:12.107Z,1.90
2023-03-17T10:56:11.747Z,1.92
2023-03-17T11:00:11.714Z,1.88
2023-03-17T11:04:11.688Z,1.81
2023-03-17T11:08:12.112Z,1.77
2023-03-17T11:12:11.582Z,1.62
2023-03-17T11:16:12.162Z,1.52
2023-03-17T11:20:11.932Z,1.56
2023-03-17T11:24:12.089Z,1.58
2023-03-17T11:28:12.252Z,1.50
2023-03-17T11:32:12.432Z,1.45
2023-03-17T11:36:12.665Z,1.36
2023-03-17T11:40:13.110Z,1.31
2023-03-17T11:44:13.122Z,1.36
2023-03-17T11:48:13.131Z,1.43
2023-03-17T11:52:12.754Z,1.33
2023-03-17T11:56:12.736Z,1.32
2023-03-17T12:00:12.657Z,1.26
2023-03-17T12:04:13.184Z,1.33
2023-03-17T12:08:12.595Z,1.26
2023-03-17T12:12:13.820Z,1.20
2023-03-17T12:16:12.706Z,1.17
2023-03-17T12:20:12.514Z,1.09
2023-03-17T12:24:12.652Z,1.03
2023-03-17T12:28:12.450Z,1.04
2023-03-17T12:32:12.634Z,1.10
2023-03-17T12:36:12.619Z,1.10
2023-03-17T12:40:12.293Z,1.12
2023-03-17T12:44:12.278Z,1.10
2023-03-17T12:48:12.241Z,1.12
2023-03-17T12:52:12.204Z,1.10
2023-03-17T12:56:12.151Z,1.14
2023-03-17T13:00:12.274Z,1.14
2023-03-17T13:04:12.062Z,1.09
2023-03-17T13:08:12.191Z,1.10
2023-03-17T13:12:11.997Z,1.14
2023-03-17T13:16:11.996Z,1.17
2023-03-17T13:20:12.043Z,1.11
2023-03-17T13:24:11.914Z,1.17
2023-03-17T13:28:11.964Z,1.24
2023-03-17T13:32:11.916Z,1.23
2023-03-17T13:36:11.906Z,1.24
2023-03-17T13:40:11.868Z,1.24
2023-03-17T13:44:11.832Z,1.26
2023-03-17T13:48:11.768Z,1.18
2023-03-17T13:52:11.710Z,1.25
2023-03-17T13:56:11.708Z,1.10
2023-03-17T14:00:11.633Z,1.12
2023-03-17T14:04:11.702Z,1.04
2023-03-17T14:08:11.663Z,1.01
2023-03-17T14:12:11.869Z,1.01
2023-03-17T14:16:11.875Z,1.10
2023-03-17T14:20:11.810Z,1.05
2023-03-17T14:24:11.773Z,0.98
2023-03-17T14:28:11.788Z,1.06
2023-03-17T14:32:11.670Z,1.07
2023-03-17T14:36:14.019Z,1.00
2023-03-17T14:40:11.610Z,0.98
2023-03-17T14:44:11.551Z,1.00
2023-03-17T14:48:11.544Z,0.91
2023-03-17T14:52:11.525Z,0.96
2023-03-17T14:56:11.478Z,1.00
2023-03-17T15:00:11.444Z,0.97
2023-03-17T15:04:11.410Z,1.06
2023-03-17T15:08:11.363Z,1.03
2023-03-17T15:12:11.296Z,0.99
2023-03-17T15:16:11.397Z,0.96
2023-03-17T15:20:11.592Z,0.94
2023-03-17T15:24:11.716Z,1.00
2023-03-17T15:28:11.763Z,0.94
2023-03-17T15:32:11.869Z,0.90
2023-03-17T15:36:16.584Z,0.98
2023-03-17T15:40:12.975Z,0.98
2023-03-17T15:44:11.949Z,0.93
2023-03-17T15:48:12.098Z,0.88
2023-03-17T15:52:12.295Z,0.98
2023-03-17T15:56:12.530Z,1.05
2023-03-17T16:00:12.470Z,0.99
2023-03-17T16:04:12.438Z,0.98
2023-03-17T16:08:12.380Z,1.02
2023-03-17T16:12:12.365Z,0.99
2023-03-17T16:16:12.348Z,1.05
2023-03-17T16:20:12.276Z,1.05
2023-03-17T16:24:12.234Z,0.95
2023-03-17T16:28:12.257Z,1.02
2023-03-17T16:32:12.194Z,1.03
2023-03-17T16:36:12.204Z,1.03
2023-03-17T16:40:14.268Z,1.03
2023-03-17T16:44:12.336Z,0.97
2023-03-17T16:48:12.175Z,1.00
2023-03-17T16:52:12.127Z,0.98
2023-03-17T16:56:12.132Z,1.06
2023-03-17T17:00:12.034Z,1.09
2023-03-17T17:04:12.008Z,1.10
2023-03-17T17:08:11.970Z,1.06
2023-03-17T17:12:11.924Z,1.13
2023-03-17T17:16:11.995Z,1.20
2023-03-17T17:20:11.869Z,1.21
2023-03-17T17:24:11.887Z,1.20
2023-03-17T17:28:11.973Z,1.17
2023-03-17T17:32:12.142Z,1.17
2023-03-17T17:36:12.405Z,1.25
2023-03-17T17:40:12.481Z,1.20
2023-03-17T17:44:12.652Z,1.25
2023-03-17T17:48:12.879Z,1.30
2023-03-17T17:52:13.013Z,1.35
2023-03-17T17:56:13.229Z,1.33
2023-03-17T18:00:13.390Z,1.24
2023-03-17T18:04:13.642Z,1.45
2023-03-17T18:08:13.693Z,1.59
2023-03-17T18:12:13.793Z,1.71
2023-03-17T18:16:13.923Z,1.77
2023-03-17T18:20:13.977Z,1.85
2023-03-17T18:24:14.129Z,1.92
2023-03-17T18:28:14.311Z,1.95
2023-03-17T18:32:14.403Z,2.00
2023-03-17T18:36:14.397Z,2.04
2023-03-17T18:40:18.152Z,2.06
2023-03-17T18:44:14.315Z,2.12
2023-03-17T18:48:14.248Z,2.11
2023-03-17T18:52:14.199Z,2.11
2023-03-17T18:56:14.371Z,2.12
2023-03-17T19:00:14.314Z,2.13
2023-03-17T19:04:14.286Z,2.10
2023-03-17T19:08:14.233Z,2.12
2023-03-17T19:12:14.208Z,2.08
2023-03-17T19:16:14.213Z,2.07
2023-03-17T19:20:14.093Z,2.07
2023-03-17T19:24:14.083Z,2.04
2023-03-17T19:28:14.041Z,2.02
2023-03-17T19:32:14.009Z,1.99
2023-03-17T19:36:14.013Z,1.96
2023-03-17T19:40:13.965Z,1.97
2023-03-17T19:44:13.883Z,1.93
2023-03-17T19:48:13.860Z,1.94
2023-03-17T19:52:13.911Z,1.92
2023-03-17T19:56:14.048Z,1.93
2023-03-17T20:00:14.119Z,1.88
2023-03-17T20:04:14.135Z,1.87
2023-03-17T20:08:14.192Z,1.84
2023-03-17T20:12:14.213Z,1.82
2023-03-17T20:16:14.176Z,1.81
2023-03-17T20:20:14.161Z,1.81
2023-03-17T20:24:14.170Z,1.78
2023-03-17T20:28:14.220Z,1.74
2023-03-17T20:32:14.252Z,1.73
2023-03-17T20:36:14.373Z,1.72
2023-03-17T20:40:14.363Z,1.70
2023-03-17T20:44:14.360Z,1.68
2023-03-17T20:48:14.294Z,1.67
2023-03-17T20:52:14.344Z,1.68
2023-03-17T20:56:14.361Z,1.67
2023-03-17T21:00:14.315Z,1.64
2023-03-17T21:04:14.412Z,1.64
2023-03-17T21:08:14.420Z,1.61
2023-03-17T21:12:14.421Z,1.57
2023-03-17T21:16:14.433Z,1.57
2023-03-17T21:20:14.360Z,1.55
2023-03-17T21:24:14.341Z,1.55
2023-03-17T21:28:14.353Z,1.54
2023-03-17T21:32:14.280Z,1.52
2023-03-17T21:36:14.304Z,1.52
2023-03-17T21:40:14.263Z,1.52
2023-03-17T21:44:14.219Z,1.47
2023-03-17T21:48:14.198Z,1.45
2023-03-17T21:52:14.210Z,1.44
2023-03-17T21:56:14.180Z,1.45
2023-03-17T22:00:14.195Z,1.43
2023-03-17T22:04:14.234Z,1.42
2023-03-17T22:08:14.209Z,1.40
2023-03-17T22:12:14.183Z,1.42
2023-03-17T22:16:14.132Z,1.38
2023-03-17T22:20:14.128Z,1.38
2023-03-17T22:24:14.120Z,1.37
2023-03-17T22:28:14.081Z,1.34
2023-03-17T22:32:14.101Z,1.35
2023-03-17T22:36:14.089Z,1.36
2023-03-17T22:40:14.024Z,1.33
2023-03-17T22:44:14.070Z,1.31
2023-03-17T22:48:14.043Z,1.30
2023-03-17T22:52:13.997Z,1.29
2023-03-17T22:56:13.973Z,1.28
2023-03-17T23:00:14.013Z,1.30
2023-03-17T23:04:14.146Z,1.29
2023-03-17T23:08:14.150Z,1.26
2023-03-17T23:12:14.151Z,1.27
2023-03-17T23:16:14.150Z,1.26
2023-03-17T23:20:14.117Z,1.25
2023-03-17T23:24:14.120Z,1.26
2023-03-17T23:28:14.091Z,1.21
2023-03-17T23:32:14.090Z,1.22
2023-03-17T23:36:14.114Z,1.23
2023-03-17T23:40:14.021Z,1.21
2023-03-17T23:44:14.064Z,1.20
2023-03-17T23:48:14.049Z,1.20
2023-03-17T23:52:13.965Z,1.18
2023-03-17T23:56:13.980Z,1.18
